createdAt,value
2019-04-29T00:00:31.066Z,0.00
2019-04-29T00:01:31.160Z,0.00
2019-04-29T00:02:31.351Z,0.00
2019-04-29T00:03:31.583Z,0.00
2019-04-29T00:04:31.676Z,0.00
2019-04-29T00:05:31.872Z,0.00
2019-04-29T00:06:32.064Z,0.00
2019-04-29T00:07:32.253Z,0.00
2019-04-29T00:08:32.452Z,0.00
2019-04-29T00:09:32.684Z,0.00
2019-04-29T00:10:32.755Z,0.00
2019-04-29T00:11:32.963Z,0.00
2019-04-29T00:12:33.194Z,0.00
2019-04-29T00:13:33.259Z,0.00
2019-04-29T00:14:33.453Z,0.00
2019-04-29T00:15:33.656Z,0.00
2019-04-29T00:16:33.851Z,0.00
2019-04-29T00:17:34.074Z,0.00
2019-04-29T00:18:38.752Z,0.00
2019-04-29T00:19:36.262Z,0.00
2019-04-29T00:20:36.861Z,0.00
2019-04-29T00:21:38.433Z,0.00
2019-04-29T00:22:36.340Z,0.00
2019-04-29T00:23:35.500Z,0.00
2019-04-29T00:24:35.289Z,0.00
2019-04-29T00:25:36.433Z,0.00
2019-04-29T00:26:35.439Z,0.00
2019-04-29T00:27:35.659Z,0.00
2019-04-29T00:28:35.763Z,0.00
2019-04-29T00:29:35.996Z,0.00
2019-04-29T00:30:36.052Z,0.00
2019-04-29T00:31:36.246Z,0.00
2019-04-29T00:32:36.434Z,0.00
2019-04-29T00:33:36.633Z,0.00
2019-04-29T00:34:36.854Z,0.00
2019-04-29T00:35:37.067Z,0.00
2019-04-29T00:36:37.296Z,0.00
2019-04-29T00:37:37.446Z,0.00
2019-04-29T00:38:37.643Z,0.00
2019-04-29T00:39:37.843Z,0.00
2019-04-29T00:40:38.033Z,0.00
2019-04-29T00:41:38.225Z,0.00
2019-04-29T00:42:38.429Z,0.00
2019-04-29T00:43:38.632Z,0.00
2019-04-29T00:44:38.808Z,0.00
2019-04-29T00:45:39.004Z,0.00
2019-04-29T00:46:39.189Z,0.00
2019-04-29T00:47:39.395Z,0.00
2019-04-29T00:48:39.616Z,0.00
2019-04-29T00:49:39.709Z,0.00
2019-04-29T00:50:39.924Z,0.00
2019-04-29T00:51:40.002Z,0.00
2019-04-29T00:52:40.102Z,0.00
2019-04-29T00:53:40.292Z,0.00
2019-04-29T00:54:40.474Z,0.00
2019-04-29T00:55:40.670Z,0.00
2019-04-29T00:56:40.885Z,0.00
2019-04-29T00:57:41.091Z,0.00
2019-04-29T00:58:41.290Z,0.00
2019-04-29T00:59:41.512Z,0.00
2019-04-29T01:00:41.695Z,0.00
2019-04-29T01:01:41.897Z,0.00
2019-04-29T01:02:42.097Z,0.00
2019-04-29T01:03:42.326Z,0.00
2019-04-29T01:04:42.540Z,0.00
2019-04-29T01:05:42.733Z,0.00
2019-04-29T01:06:42.950Z,0.00
2019-04-29T01:07:43.189Z,0.00
2019-04-29T01:08:43.254Z,0.00
2019-04-29T01:09:43.443Z,0.00
2019-04-29T01:10:43.670Z,0.00
2019-04-29T01:11:43.919Z,0.00
2019-04-29T01:12:43.990Z,0.00
2019-04-29T01:13:44.189Z,0.00
2019-04-29T01:14:44.392Z,0.00
2019-04-29T01:15:44.591Z,0.00
2019-04-29T01:16:44.790Z,0.00
2019-04-29T01:17:45.030Z,0.00
2019-04-29T01:18:45.119Z,0.00
2019-04-29T01:19:45.319Z,0.00
2019-04-29T01:20:45.517Z,0.00
2019-04-29T01:21:45.711Z,0.00
2019-04-29T01:22:45.911Z,0.00
2019-04-29T01:23:46.120Z,0.00
2019-04-29T01:24:46.323Z,0.00
2019-04-29T01:25:46.513Z,0.00
2019-04-29T01:26:46.742Z,0.00
2019-04-29T01:27:46.815Z,0.00
2019-04-29T01:28:49.449Z,0.00
2019-04-29T01:29:47.225Z,0.00
2019-04-29T01:30:47.407Z,0.00
2019-04-29T01:31:47.612Z,0.00
2019-04-29T01:32:47.802Z,0.00
2019-04-29T01:33:47.997Z,0.00
2019-04-29T01:34:48.224Z,0.00
2019-04-29T01:35:48.417Z,0.00
2019-04-29T01:36:48.608Z,0.00
2019-04-29T01:37:48.823Z,0.00
2019-04-29T01:38:49.016Z,0.00
2019-04-29T01:39:49.197Z,0.00
2019-04-29T01:40:49.375Z,0.00
2019-04-29T01:41:49.585Z,0.00
2019-04-29T01:42:49.793Z,0.00
2019-04-29T01:43:49.989Z,0.00
2019-04-29T01:44:50.179Z,0.00
2019-04-29T01:45:50.387Z,0.00
2019-04-29T01:46:50.595Z,0.00
2019-04-29T01:47:50.788Z,0.00
2019-04-29T01:48:50.996Z,0.00
2019-04-29T01:49:51.071Z,0.00
2019-04-29T01:50:51.284Z,0.00
2019-04-29T01:51:51.472Z,0.00
2019-04-29T01:52:51.665Z,0.00
2019-04-29T01:53:51.872Z,0.00
2019-04-29T01:54:52.071Z,0.00
2019-04-29T01:55:52.302Z,0.00
2019-04-29T01:56:52.519Z,0.00
2019-04-29T01:57:52.707Z,0.00
2019-04-29T01:58:52.898Z,0.00
2019-04-29T01:59:53.167Z,0.00
2019-04-29T02:00:53.229Z,0.00
2019-04-29T02:01:53.415Z,0.00
2019-04-29T02:02:53.609Z,0.00
2019-04-29T02:03:53.808Z,0.00
2019-04-29T02:04:53.988Z,0.00
2019-04-29T02:05:54.180Z,0.00
2019-04-29T02:06:54.365Z,0.00
2019-04-29T02:07:54.585Z,0.00
2019-04-29T02:08:54.776Z,0.00
2019-04-29T02:09:54.987Z,0.00
2019-04-29T02:10:55.180Z,0.00
2019-04-29T02:11:55.445Z,0.00
2019-04-29T02:12:55.530Z,0.00
2019-04-29T02:13:55.615Z,0.00
2019-04-29T02:14:55.793Z,0.00
2019-04-29T02:15:56.000Z,0.00
2019-04-29T02:16:56.205Z,0.00
2019-04-29T02:17:56.392Z,0.00
2019-04-29T02:18:56.577Z,0.00
2019-04-29T02:19:56.776Z,0.00
2019-04-29T02:20:56.977Z,0.00
2019-04-29T02:21:57.182Z,0.00
2019-04-29T02:22:57.369Z,0.00
2019-04-29T02:23:57.579Z,0.00
2019-04-29T02:24:57.672Z,0.00
2019-04-29T02:25:57.868Z,0.00
2019-04-29T02:26:58.060Z,0.00
2019-04-29T02:27:58.248Z,0.00
2019-04-29T02:28:58.447Z,0.00
2019-04-29T02:29:58.641Z,0.00
2019-04-29T02:30:58.847Z,0.00
2019-04-29T02:31:59.061Z,0.00
2019-04-29T02:32:59.150Z,0.00
2019-04-29T02:33:59.363Z,0.00
2019-04-29T02:34:59.555Z,0.00
2019-04-29T02:35:59.805Z,0.00
2019-04-29T02:36:59.924Z,0.00
2019-04-29T02:37:59.992Z,0.00
2019-04-29T02:39:00.193Z,0.00
2019-04-29T02:40:00.405Z,0.00
2019-04-29T02:41:00.608Z,0.00
2019-04-29T02:42:00.821Z,0.00
2019-04-29T02:43:01.024Z,0.00
2019-04-29T02:44:01.225Z,0.00
2019-04-29T02:45:01.439Z,0.00
2019-04-29T02:46:01.612Z,0.00
2019-04-29T02:47:01.812Z,0.00
2019-04-29T02:48:02.006Z,0.00
2019-04-29T02:49:02.198Z,0.00
2019-04-29T02:50:02.389Z,0.00
2019-04-29T02:51:02.579Z,0.00
2019-04-29T02:52:02.767Z,0.00
2019-04-29T02:53:02.986Z,0.00
2019-04-29T02:54:03.180Z,0.00
2019-04-29T02:55:03.355Z,0.00
2019-04-29T02:56:03.550Z,0.00
2019-04-29T02:57:03.654Z,0.00
2019-04-29T02:58:03.855Z,0.00
2019-04-29T02:59:04.051Z,0.00
2019-04-29T03:00:04.288Z,0.00
2019-04-29T03:01:04.344Z,0.00
2019-04-29T03:02:04.538Z,0.00
2019-04-29T03:03:04.731Z,0.00
2019-04-29T03:04:04.919Z,0.00
2019-04-29T03:05:05.147Z,0.00
2019-04-29T03:06:05.334Z,0.00
2019-04-29T03:07:05.446Z,0.00
2019-04-29T03:08:05.652Z,0.00
2019-04-29T03:09:05.892Z,0.00
2019-04-29T03:10:06.010Z,0.00
2019-04-29T03:11:06.093Z,0.00
2019-04-29T03:12:06.281Z,0.00
2019-04-29T03:13:06.480Z,0.00
2019-04-29T03:14:06.703Z,0.00
2019-04-29T03:15:06.940Z,0.00
2019-04-29T03:16:07.106Z,0.00
2019-04-29T03:17:07.324Z,0.00
2019-04-29T03:18:07.412Z,0.00
2019-04-29T03:19:07.512Z,0.00
2019-04-29T03:20:07.692Z,0.00
2019-04-29T03:21:07.934Z,0.00
2019-04-29T03:22:08.022Z,0.00
2019-04-29T03:23:08.214Z,0.00
2019-04-29T03:24:08.404Z,0.00
2019-04-29T03:25:08.596Z,0.00
2019-04-29T03:26:08.781Z,0.00
2019-04-29T03:27:08.976Z,0.00
2019-04-29T03:28:09.183Z,0.00
2019-04-29T03:29:09.375Z,0.00
2019-04-29T03:30:09.578Z,0.00
2019-04-29T03:31:09.769Z,4.00
2019-04-29T03:32:09.986Z,4.00
2019-04-29T03:33:10.156Z,4.00
2019-04-29T03:34:10.367Z,0.00
2019-04-29T03:35:10.564Z,4.00
2019-04-29T03:36:10.781Z,4.00
2019-04-29T03:37:10.877Z,8.00
2019-04-29T03:38:11.073Z,4.00
2019-04-29T03:39:11.257Z,8.00
2019-04-29T03:40:11.458Z,8.00
2019-04-29T03:41:11.672Z,8.00
2019-04-29T03:42:11.853Z,12.00
2019-04-29T03:43:12.053Z,12.00
2019-04-29T03:44:12.250Z,12.00
2019-04-29T03:45:12.439Z,16.00
2019-04-29T03:46:12.636Z,20.00
2019-04-29T03:47:12.827Z,20.00
2019-04-29T03:48:13.051Z,20.00
2019-04-29T03:49:13.156Z,28.00
2019-04-29T03:50:13.324Z,28.00
2019-04-29T03:51:13.440Z,36.00
2019-04-29T03:52:13.645Z,40.00
2019-04-29T03:53:13.847Z,44.00
2019-04-29T03:54:14.048Z,52.00
2019-04-29T03:55:14.249Z,56.00
2019-04-29T03:56:14.478Z,64.00
2019-04-29T03:57:14.662Z,68.00
2019-04-29T03:58:14.855Z,76.00
2019-04-29T03:59:15.352Z,88.00
2019-04-29T04:00:15.311Z,100.00
2019-04-29T04:01:15.393Z,112.00
2019-04-29T04:02:15.868Z,128.00
2019-04-29T04:03:15.716Z,144.00
2019-04-29T04:04:15.900Z,156.00
2019-04-29T04:05:16.203Z,172.00
2019-04-29T04:06:16.177Z,184.00
2019-04-29T04:07:16.375Z,196.00
2019-04-29T04:08:16.580Z,212.00
2019-04-29T04:09:16.658Z,228.00
2019-04-29T04:10:16.855Z,244.00
2019-04-29T04:11:17.058Z,256.00
2019-04-29T04:12:17.272Z,272.00
2019-04-29T04:13:17.460Z,284.00
2019-04-29T04:14:17.661Z,300.00
2019-04-29T04:15:17.843Z,320.00
2019-04-29T04:16:18.039Z,340.00
2019-04-29T04:17:20.677Z,368.00
2019-04-29T04:18:18.420Z,392.00
2019-04-29T04:19:18.706Z,424.00
2019-04-29T04:20:18.810Z,460.00
2019-04-29T04:21:19.013Z,496.00
2019-04-29T04:22:19.207Z,532.00
2019-04-29T04:23:19.430Z,572.00
2019-04-29T04:24:19.603Z,624.00
2019-04-29T04:25:19.785Z,672.00
2019-04-29T04:26:19.968Z,728.00
2019-04-29T04:27:20.187Z,780.00
2019-04-29T04:28:20.360Z,832.00
2019-04-29T04:29:20.553Z,884.00
2019-04-29T04:30:20.723Z,944.00
2019-04-29T04:31:20.915Z,1000.00
2019-04-29T04:32:21.111Z,1056.00
2019-04-29T04:33:21.206Z,1112.00
2019-04-29T04:34:21.409Z,1164.00
2019-04-29T04:35:21.613Z,1200.00
2019-04-29T04:36:21.830Z,1224.00
2019-04-29T04:37:22.042Z,1236.00
2019-04-29T04:38:22.219Z,1264.00
2019-04-29T04:39:22.440Z,1308.00
2019-04-29T04:40:24.549Z,1360.00
2019-04-29T04:41:22.727Z,1408.00
2019-04-29T04:42:22.897Z,1460.00
2019-04-29T04:43:23.086Z,1492.00
2019-04-29T04:44:23.262Z,1512.00
2019-04-29T04:45:24.785Z,1536.00
2019-04-29T04:46:25.057Z,1556.00
2019-04-29T04:47:25.454Z,1556.00
2019-04-29T04:48:25.614Z,1560.00
2019-04-29T04:49:25.641Z,1552.00
2019-04-29T04:50:26.254Z,1576.00
2019-04-29T04:51:25.600Z,1628.00
2019-04-29T04:52:26.261Z,1672.00
2019-04-29T04:53:26.303Z,1716.00
2019-04-29T04:54:26.848Z,1748.00
2019-04-29T04:55:26.994Z,1768.00
2019-04-29T04:56:28.230Z,1772.00
2019-04-29T04:57:26.364Z,1772.00
2019-04-29T04:58:27.917Z,1772.00
2019-04-29T04:59:27.315Z,1772.00
2019-04-29T05:00:28.426Z,1796.00
2019-04-29T05:01:27.378Z,1816.00
2019-04-29T05:02:27.963Z,1844.00
2019-04-29T05:03:26.293Z,1916.00
2019-04-29T05:04:26.379Z,2020.00
2019-04-29T05:05:26.573Z,2100.00
2019-04-29T05:06:26.766Z,2164.00
2019-04-29T05:07:26.980Z,2240.00
2019-04-29T05:08:27.209Z,2340.00
2019-04-29T05:09:27.281Z,2456.00
2019-04-29T05:10:27.474Z,2576.00
2019-04-29T05:11:27.677Z,2720.00
2019-04-29T05:12:27.870Z,2848.00
2019-04-29T05:13:28.780Z,2916.00
2019-04-29T05:14:30.480Z,2940.00
2019-04-29T05:15:29.449Z,2944.00
2019-04-29T05:16:30.799Z,2992.00
2019-04-29T05:17:29.946Z,3016.00
2019-04-29T05:18:31.098Z,3016.00
2019-04-29T05:19:30.072Z,3064.00
2019-04-29T05:20:30.923Z,3124.00
2019-04-29T05:21:30.588Z,3144.00
2019-04-29T05:22:30.848Z,3104.00
2019-04-29T05:23:32.424Z,3072.00
2019-04-29T05:24:30.870Z,3088.00
2019-04-29T05:25:31.084Z,3092.00
2019-04-29T05:26:31.367Z,3048.00
2019-04-29T05:27:32.250Z,2920.00
2019-04-29T05:28:32.735Z,2800.00
2019-04-29T05:29:31.666Z,2724.00
2019-04-29T05:30:32.380Z,2736.00
2019-04-29T05:31:33.274Z,2816.00
2019-04-29T05:32:32.076Z,2936.00
2019-04-29T05:33:32.077Z,3032.00
2019-04-29T05:34:34.668Z,3100.00
2019-04-29T05:35:33.819Z,3108.00
2019-04-29T05:36:37.842Z,3104.00
2019-04-29T05:37:34.783Z,3208.00
2019-04-29T05:38:35.075Z,3372.00
2019-04-29T05:39:35.937Z,3528.00
2019-04-29T05:40:36.232Z,3664.00
2019-04-29T05:41:34.710Z,3756.00
2019-04-29T05:42:35.353Z,3796.00
2019-04-29T05:43:36.041Z,3812.00
2019-04-29T05:44:36.574Z,3860.00
2019-04-29T05:45:35.791Z,3940.00
2019-04-29T05:46:36.204Z,4116.00
2019-04-29T05:47:37.823Z,4348.00
2019-04-29T05:48:34.899Z,4516.00
2019-04-29T05:49:37.372Z,4588.00
2019-04-29T05:50:37.979Z,4544.00
2019-04-29T05:51:37.327Z,4428.00
2019-04-29T05:52:39.448Z,4328.00
2019-04-29T05:53:38.455Z,4264.00
2019-04-29T05:54:39.579Z,4204.00
2019-04-29T05:55:38.151Z,4160.00
2019-04-29T05:56:36.113Z,4068.00
2019-04-29T05:57:36.564Z,3960.00
2019-04-29T05:58:37.901Z,3996.00
2019-04-29T05:59:35.415Z,4128.00
2019-04-29T06:00:35.532Z,4420.00
2019-04-29T06:01:36.076Z,4600.00
2019-04-29T06:02:38.743Z,4800.00
2019-04-29T06:03:38.028Z,5004.00
2019-04-29T06:04:39.785Z,5128.00
2019-04-29T06:05:37.878Z,5136.00
2019-04-29T06:06:37.578Z,5084.00
2019-04-29T06:07:39.378Z,4968.00
2019-04-29T06:08:39.198Z,4760.00
2019-04-29T06:09:41.227Z,4576.00
2019-04-29T06:10:41.779Z,4432.00
2019-04-29T06:11:39.129Z,4284.00
2019-04-29T06:12:40.393Z,4160.00
2019-04-29T06:13:39.669Z,4088.00
2019-04-29T06:14:37.809Z,4076.00
2019-04-29T06:15:37.894Z,4100.00
2019-04-29T06:16:38.090Z,4172.00
2019-04-29T06:17:40.144Z,4272.00
2019-04-29T06:18:40.860Z,4372.00
2019-04-29T06:19:41.020Z,4456.00
2019-04-29T06:20:41.314Z,4572.00
2019-04-29T06:21:40.156Z,4852.00
2019-04-29T06:22:41.977Z,5460.00
2019-04-29T06:23:39.742Z,5940.00
2019-04-29T06:24:41.030Z,6024.00
2019-04-29T06:25:39.394Z,6316.00
2019-04-29T06:26:39.417Z,6556.00
2019-04-29T06:27:39.537Z,7076.00
2019-04-29T06:28:39.620Z,7712.00
2019-04-29T06:29:39.882Z,8372.00
2019-04-29T06:30:40.730Z,8680.00
2019-04-29T06:31:40.174Z,8616.00
2019-04-29T06:32:40.589Z,8476.00
2019-04-29T06:33:40.638Z,8188.00
2019-04-29T06:34:41.803Z,8224.00
2019-04-29T06:35:43.425Z,8696.00
2019-04-29T06:36:41.070Z,8828.00
2019-04-29T06:37:41.335Z,9060.00
2019-04-29T06:38:41.655Z,8864.00
2019-04-29T06:39:41.662Z,8428.00
2019-04-29T06:40:41.811Z,7096.00
2019-04-29T06:41:45.196Z,6652.00
2019-04-29T06:42:42.141Z,6160.00
2019-04-29T06:43:42.225Z,5912.00
2019-04-29T06:44:44.311Z,5812.00
2019-04-29T06:45:42.574Z,5776.00
2019-04-29T06:46:42.702Z,5612.00
2019-04-29T06:47:42.989Z,5688.00
2019-04-29T06:48:43.321Z,6260.00
2019-04-29T06:49:43.398Z,6424.00
2019-04-29T06:50:43.320Z,6044.00
2019-04-29T06:51:43.410Z,5952.00
2019-04-29T06:52:43.605Z,6132.00
2019-04-29T06:53:43.890Z,6508.00
2019-04-29T06:54:43.869Z,6956.00
2019-04-29T06:55:44.047Z,7264.00
2019-04-29T06:56:44.244Z,7604.00
2019-04-29T06:57:44.352Z,8292.00
2019-04-29T06:58:44.444Z,9340.00
2019-04-29T06:59:47.552Z,10176.00
2019-04-29T07:00:44.798Z,10128.00
2019-04-29T07:01:44.897Z,9392.00
2019-04-29T07:02:49.431Z,8988.00
2019-04-29T07:03:45.354Z,8536.00
2019-04-29T07:04:45.486Z,8508.00
2019-04-29T07:05:46.252Z,8168.00
2019-04-29T07:06:56.699Z,8052.00
2019-04-29T07:07:46.000Z,8560.00
2019-04-29T07:08:46.226Z,9416.00
2019-04-29T07:09:46.392Z,10172.00
2019-04-29T07:10:46.709Z,10236.00
2019-04-29T07:11:46.640Z,10300.00
2019-04-29T07:12:47.475Z,9708.00
2019-04-29T07:13:47.000Z,9068.00
2019-04-29T07:14:47.203Z,7944.00
2019-04-29T07:15:47.797Z,7772.00
2019-04-29T07:16:47.530Z,8416.00
2019-04-29T07:17:47.633Z,8812.00
2019-04-29T07:18:53.424Z,8808.00
2019-04-29T07:19:48.073Z,8460.00
2019-04-29T07:20:48.193Z,8208.00
2019-04-29T07:21:51.489Z,7928.00
2019-04-29T07:22:48.597Z,7908.00
2019-04-29T07:23:48.732Z,7928.00
2019-04-29T07:24:48.832Z,7944.00
2019-04-29T07:25:49.042Z,7936.00
2019-04-29T07:26:49.234Z,7924.00
2019-04-29T07:27:49.477Z,7964.00
2019-04-29T07:28:53.427Z,8160.00
2019-04-29T07:29:49.910Z,8156.00
2019-04-29T07:31:01.261Z,8252.00
2019-04-29T07:31:50.114Z,8184.00
2019-04-29T07:32:50.252Z,8148.00
2019-04-29T07:33:53.677Z,8128.00
2019-04-29T07:34:50.568Z,8168.00
2019-04-29T07:35:50.647Z,8976.00
2019-04-29T07:36:53.189Z,8672.00
2019-04-29T07:37:50.914Z,9132.00
2019-04-29T07:38:56.329Z,9276.00
2019-04-29T07:39:51.245Z,9232.00
2019-04-29T07:40:51.367Z,9340.00
2019-04-29T07:41:53.689Z,9356.00
2019-04-29T07:42:51.676Z,8564.00
2019-04-29T07:43:51.991Z,9564.00
2019-04-29T07:44:52.754Z,9484.00
2019-04-29T07:45:52.113Z,10280.00
2019-04-29T07:46:57.897Z,10140.00
2019-04-29T07:47:56.479Z,11248.00
2019-04-29T07:49:01.247Z,10792.00
2019-04-29T07:49:53.017Z,11100.00
2019-04-29T07:50:53.126Z,11540.00
2019-04-29T07:51:53.193Z,12148.00
2019-04-29T07:52:53.288Z,12860.00
2019-04-29T07:53:53.524Z,13004.00
2019-04-29T07:54:55.984Z,13832.00
2019-04-29T07:55:53.927Z,14192.00
2019-04-29T07:56:54.044Z,13904.00
2019-04-29T07:57:54.248Z,12868.00
2019-04-29T07:58:54.272Z,12892.00
2019-04-29T07:59:54.621Z,12528.00
2019-04-29T08:00:56.350Z,12452.00
2019-04-29T08:01:55.579Z,12176.00
2019-04-29T08:02:54.992Z,11580.00
2019-04-29T08:03:55.210Z,10344.00
2019-04-29T08:04:55.500Z,9728.00
2019-04-29T08:05:55.900Z,10048.00
2019-04-29T08:06:56.006Z,10044.00
2019-04-29T08:07:55.943Z,11468.00
2019-04-29T08:09:02.767Z,16028.00
2019-04-29T08:09:56.349Z,15052.00
2019-04-29T08:10:56.808Z,12112.00
2019-04-29T08:11:57.034Z,13484.00
2019-04-29T08:12:56.760Z,15680.00
2019-04-29T08:13:57.006Z,13896.00
2019-04-29T08:14:58.141Z,15820.00
2019-04-29T08:15:57.222Z,23296.00
2019-04-29T08:16:57.635Z,21600.00
2019-04-29T08:18:06.453Z,24768.00
2019-04-29T08:18:57.816Z,24704.00
2019-04-29T08:20:00.665Z,20128.00
2019-04-29T08:20:58.297Z,18912.00
2019-04-29T08:21:58.355Z,13924.00
2019-04-29T08:23:02.261Z,14608.00
2019-04-29T08:23:58.750Z,15244.00
2019-04-29T08:24:59.474Z,15184.00
2019-04-29T08:26:02.714Z,16372.00
2019-04-29T08:26:59.297Z,14100.00
2019-04-29T08:27:59.545Z,11688.00
2019-04-29T08:29:00.677Z,21184.00
2019-04-29T08:29:59.778Z,15012.00
2019-04-29T08:31:00.015Z,36832.00
2019-04-29T08:32:02.507Z,28096.00
2019-04-29T08:33:00.440Z,11704.00
2019-04-29T08:34:00.628Z,12708.00
2019-04-29T08:35:03.238Z,17408.00
2019-04-29T08:36:00.988Z,20512.00
2019-04-29T08:37:02.435Z,11136.00
2019-04-29T08:38:01.997Z,10472.00
2019-04-29T08:39:08.389Z,27136.00
2019-04-29T08:40:15.446Z,31712.00
2019-04-29T08:41:01.948Z,29760.00
2019-04-29T08:42:03.782Z,28928.00
2019-04-29T08:43:02.351Z,28032.00
2019-04-29T08:44:15.921Z,24192.00
2019-04-29T08:45:02.959Z,14128.00
2019-04-29T08:46:03.029Z,55104.00
2019-04-29T08:47:03.176Z,33408.00
2019-04-29T08:48:03.262Z,64096.00
2019-04-29T08:49:06.088Z,39648.00
2019-04-29T08:50:04.114Z,37280.00
2019-04-29T08:51:05.063Z,27552.00
2019-04-29T08:52:03.944Z,61504.00
2019-04-29T08:53:04.239Z,22368.00
2019-04-29T08:54:04.351Z,43936.00
2019-04-29T08:55:04.457Z,41088.00
2019-04-29T08:56:05.699Z,27584.00
2019-04-29T08:57:04.668Z,18944.00
2019-04-29T08:58:06.998Z,13596.00
2019-04-29T08:59:05.088Z,7732.00
2019-04-29T09:00:05.324Z,8692.00
2019-04-29T09:01:05.413Z,10140.00
2019-04-29T09:02:10.268Z,9804.00
2019-04-29T09:03:05.735Z,12868.00
2019-04-29T09:04:05.999Z,11572.00
2019-04-29T09:05:06.700Z,17600.00
2019-04-29T09:06:07.381Z,37344.00
2019-04-29T09:07:12.783Z,32704.00
2019-04-29T09:08:06.789Z,34528.00
2019-04-29T09:09:10.655Z,34144.00
2019-04-29T09:10:07.086Z,44992.00
2019-04-29T09:11:08.240Z,58880.00
2019-04-29T09:12:07.422Z,41856.00
2019-04-29T09:13:07.620Z,41760.00
2019-04-29T09:14:07.845Z,53600.00
2019-04-29T09:15:08.086Z,61536.00
2019-04-29T09:16:08.226Z,68160.00
2019-04-29T09:17:19.721Z,61344.00
2019-04-29T09:18:11.099Z,71648.00
2019-04-29T09:19:08.816Z,73536.00
2019-04-29T09:20:09.235Z,77408.00
2019-04-29T09:21:09.115Z,46240.00
2019-04-29T09:22:09.952Z,70016.00
2019-04-29T09:23:10.174Z,63264.00
2019-04-29T09:24:11.332Z,22208.00
2019-04-29T09:25:11.475Z,69184.00
2019-04-29T09:26:11.447Z,54016.00
2019-04-29T09:27:11.278Z,61312.00
2019-04-29T09:28:10.175Z,62016.00
2019-04-29T09:29:10.267Z,41344.00
2019-04-29T09:30:10.476Z,32480.00
2019-04-29T09:31:12.709Z,22528.00
2019-04-29T09:32:13.577Z,19040.00
2019-04-29T09:33:14.303Z,16096.00
2019-04-29T09:34:13.442Z,17184.00
2019-04-29T09:35:12.801Z,21440.00
2019-04-29T09:36:13.948Z,16960.00
2019-04-29T09:37:11.685Z,12880.00
2019-04-29T09:38:11.907Z,12320.00
2019-04-29T09:39:12.139Z,12752.00
2019-04-29T09:40:12.423Z,14300.00
2019-04-29T09:41:12.506Z,15140.00
2019-04-29T09:42:14.536Z,14244.00
2019-04-29T09:43:15.642Z,17568.00
2019-04-29T09:44:13.162Z,18624.00
2019-04-29T09:45:14.683Z,20000.00
2019-04-29T09:46:13.611Z,19488.00
2019-04-29T09:47:13.850Z,16028.00
2019-04-29T09:48:13.947Z,14840.00
2019-04-29T09:49:14.046Z,14608.00
2019-04-29T09:50:14.284Z,14300.00
2019-04-29T09:51:17.501Z,15392.00
2019-04-29T09:52:14.667Z,10896.00
2019-04-29T09:53:14.847Z,10568.00
2019-04-29T09:54:16.362Z,8436.00
2019-04-29T09:55:15.719Z,9132.00
2019-04-29T09:56:15.244Z,12320.00
2019-04-29T09:57:15.468Z,11964.00
2019-04-29T09:58:15.585Z,10492.00
2019-04-29T09:59:17.732Z,7840.00
2019-04-29T10:00:15.980Z,7368.00
2019-04-29T10:01:18.781Z,8364.00
2019-04-29T10:02:16.238Z,9320.00
2019-04-29T10:03:17.219Z,9072.00
2019-04-29T10:04:16.667Z,8152.00
2019-04-29T10:05:16.747Z,6716.00
2019-04-29T10:06:16.956Z,6124.00
2019-04-29T10:07:17.474Z,5912.00
2019-04-29T10:08:17.572Z,7028.00
2019-04-29T10:09:17.507Z,7728.00
2019-04-29T10:10:17.725Z,8096.00
2019-04-29T10:11:18.001Z,8520.00
2019-04-29T10:12:18.158Z,7904.00
2019-04-29T10:13:18.266Z,7740.00
2019-04-29T10:14:18.527Z,9464.00
2019-04-29T10:15:18.639Z,11188.00
2019-04-29T10:16:18.822Z,10792.00
2019-04-29T10:17:18.943Z,10940.00
2019-04-29T10:18:19.084Z,9084.00
2019-04-29T10:19:19.210Z,7056.00
2019-04-29T10:20:19.347Z,6620.00
2019-04-29T10:21:21.607Z,7652.00
2019-04-29T10:22:19.710Z,8924.00
2019-04-29T10:23:19.878Z,8968.00
2019-04-29T10:24:19.991Z,8932.00
2019-04-29T10:25:20.137Z,6828.00
2019-04-29T10:26:20.221Z,5728.00
2019-04-29T10:27:20.331Z,5828.00
2019-04-29T10:28:20.407Z,5616.00
2019-04-29T10:29:20.682Z,6072.00
2019-04-29T10:30:20.821Z,7080.00
2019-04-29T10:31:20.913Z,7056.00
2019-04-29T10:32:21.136Z,6356.00
2019-04-29T10:33:23.065Z,6152.00
2019-04-29T10:34:21.440Z,6440.00
2019-04-29T10:35:21.549Z,6060.00
2019-04-29T10:36:21.929Z,5596.00
2019-04-29T10:37:23.773Z,6128.00
2019-04-29T10:38:22.101Z,6176.00
2019-04-29T10:39:22.632Z,6272.00
2019-04-29T10:40:22.409Z,7008.00
2019-04-29T10:41:22.638Z,7908.00
2019-04-29T10:42:23.152Z,8252.00
2019-04-29T10:43:23.029Z,8264.00
2019-04-29T10:44:23.988Z,8332.00
2019-04-29T10:45:23.345Z,7948.00
2019-04-29T10:46:23.542Z,7776.00
2019-04-29T10:47:23.750Z,7188.00
2019-04-29T10:48:23.964Z,5816.00
2019-04-29T10:49:24.172Z,4984.00
2019-04-29T10:50:24.322Z,5044.00
2019-04-29T10:51:27.350Z,5380.00
2019-04-29T10:52:24.550Z,5980.00
2019-04-29T10:53:24.721Z,7136.00
2019-04-29T10:54:24.830Z,8876.00
2019-04-29T10:55:25.611Z,9472.00
2019-04-29T10:56:25.115Z,8104.00
2019-04-29T10:57:25.343Z,9632.00
2019-04-29T10:58:30.259Z,10420.00
2019-04-29T10:59:35.622Z,15104.00
2019-04-29T11:00:25.905Z,15196.00
2019-04-29T11:01:29.149Z,15384.00
2019-04-29T11:02:26.126Z,11796.00
2019-04-29T11:03:26.297Z,11668.00
2019-04-29T11:04:26.507Z,14636.00
2019-04-29T11:05:26.756Z,11984.00
2019-04-29T11:06:26.822Z,10716.00
2019-04-29T11:07:27.758Z,8276.00
2019-04-29T11:08:27.069Z,7016.00
2019-04-29T11:09:27.318Z,7068.00
2019-04-29T11:10:27.458Z,7488.00
2019-04-29T11:11:27.552Z,7856.00
2019-04-29T11:12:27.864Z,8816.00
2019-04-29T11:13:27.918Z,7496.00
2019-04-29T11:14:28.594Z,6772.00
2019-04-29T11:15:30.560Z,6136.00
2019-04-29T11:16:45.362Z,6636.00
2019-04-29T11:17:28.674Z,7904.00
2019-04-29T11:18:28.647Z,9428.00
2019-04-29T11:19:28.765Z,10908.00
2019-04-29T11:20:28.910Z,10988.00
2019-04-29T11:21:29.340Z,10752.00
2019-04-29T11:22:29.277Z,9848.00
2019-04-29T11:23:29.368Z,9128.00
2019-04-29T11:24:32.347Z,7840.00
2019-04-29T11:25:29.756Z,6796.00
2019-04-29T11:26:29.968Z,6436.00
2019-04-29T11:27:30.042Z,6720.00
2019-04-29T11:28:30.324Z,7148.00
2019-04-29T11:29:30.371Z,7380.00
2019-04-29T11:30:30.594Z,7632.00
2019-04-29T11:31:30.816Z,7596.00
2019-04-29T11:32:31.297Z,7100.00
2019-04-29T11:33:31.109Z,6840.00
2019-04-29T11:34:33.239Z,6816.00
2019-04-29T11:35:31.403Z,6912.00
2019-04-29T11:36:34.971Z,6844.00
2019-04-29T11:37:31.669Z,6540.00
2019-04-29T11:38:33.436Z,6284.00
2019-04-29T11:39:31.975Z,5932.00
2019-04-29T11:40:43.178Z,5556.00
2019-04-29T11:41:32.395Z,5284.00
2019-04-29T11:42:36.497Z,4972.00
2019-04-29T11:43:32.906Z,4540.00
2019-04-29T11:44:33.309Z,4324.00
2019-04-29T11:45:33.791Z,4224.00
2019-04-29T11:46:33.196Z,4280.00
2019-04-29T11:47:33.300Z,4124.00
2019-04-29T11:48:33.547Z,4008.00
2019-04-29T11:49:33.686Z,3828.00
2019-04-29T11:50:33.759Z,4004.00
2019-04-29T11:51:44.179Z,4464.00
2019-04-29T11:52:39.129Z,4860.00
2019-04-29T11:53:38.037Z,5644.00
2019-04-29T11:54:35.900Z,5408.00
2019-04-29T11:55:37.431Z,4604.00
2019-04-29T11:56:34.842Z,4016.00
2019-04-29T11:57:41.025Z,3648.00
2019-04-29T11:58:35.362Z,3332.00
2019-04-29T11:59:35.551Z,3064.00
2019-04-29T12:00:36.094Z,2848.00
2019-04-29T12:01:39.202Z,2772.00
2019-04-29T12:02:45.229Z,2760.00
2019-04-29T12:03:37.448Z,2960.00
2019-04-29T12:04:35.976Z,3144.00
2019-04-29T12:05:40.176Z,3148.00
2019-04-29T12:06:36.397Z,3300.00
2019-04-29T12:07:37.495Z,3504.00
2019-04-29T12:08:36.738Z,3608.00
2019-04-29T12:09:41.020Z,3584.00
2019-04-29T12:10:39.278Z,3456.00
2019-04-29T12:11:37.345Z,3352.00
2019-04-29T12:12:37.386Z,3272.00
2019-04-29T12:13:37.760Z,3188.00
2019-04-29T12:14:39.045Z,3132.00
2019-04-29T12:15:37.848Z,3080.00
2019-04-29T12:16:38.319Z,2928.00
2019-04-29T12:17:39.431Z,2732.00
2019-04-29T12:18:39.836Z,2552.00
2019-04-29T12:19:38.551Z,2504.00
2019-04-29T12:20:38.622Z,2576.00
2019-04-29T12:21:38.843Z,2624.00
2019-04-29T12:22:48.013Z,2600.00
2019-04-29T12:23:39.650Z,2480.00
2019-04-29T12:24:40.536Z,2304.00
2019-04-29T12:25:39.681Z,2096.00